sensor_id;sensor_type;location;lat;lon;timestamp;P1;durP1;ratioP1;P2;durP2;ratioP2
14872;SDS011;7528;48.576;19.122;2023-09-12T00:01:13;0.30;;;0.30;;
14872;SDS011;7528;48.576;19.122;2023-09-12T00:06:16;0.20;;;0.20;;
14872;SDS011;7528;48.576;19.122;2023-09-12T00:11:19;0.30;;;0.30;;
14872;SDS011;7528;48.576;19.122;2023-09-12T00:16:22;0.20;;;0.20;;
14872;SDS011;7528;48.576;19.122;2023-09-12T00:21:25;0.20;;;0.20;;
14872;SDS011;7528;48.576;19.122;2023-09-12T00:26:27;0.30;;;0.30;;
14872;SDS011;7528;48.576;19.122;2023-09-12T00:31:32;0.20;;;0.20;;
14872;SDS011;7528;48.576;19.122;2023-09-12T00:36:34;0.25;;;0.25;;
14872;SDS011;7528;48.576;19.122;2023-09-12T00:41:38;0.20;;;0.20;;
14872;SDS011;7528;48.576;19.122;2023-09-12T00:46:42;0.20;;;0.20;;
14872;SDS011;7528;48.576;19.122;2023-09-12T00:51:47;0.30;;;0.30;;
14872;SDS011;7528;48.576;19.122;2023-09-12T00:56:51;0.20;;;0.20;;
14872;SDS011;7528;48.576;19.122;2023-09-12T01:01:55;0.20;;;0.20;;
14872;SDS011;7528;48.576;19.122;2023-09-12T01:06:58;0.30;;;0.30;;
14872;SDS011;7528;48.576;19.122;2023-09-12T01:12:00;0.20;;;0.20;;
14872;SDS011;7528;48.576;19.122;2023-09-12T01:17:04;0.30;;;0.30;;
14872;SDS011;7528;48.576;19.122;2023-09-12T01:22:21;0.20;;;0.20;;
14872;SDS011;7528;48.576;19.122;2023-09-12T01:27:40;0.30;;;0.30;;
14872;SDS011;7528;48.576;19.122;2023-09-12T01:32:46;0.22;;;0.22;;
14872;SDS011;7528;48.576;19.122;2023-09-12T01:37:49;0.30;;;0.30;;
14872;SDS011;7528;48.576;19.122;2023-09-12T01:42:53;0.30;;;0.30;;
14872;SDS011;7528;48.576;19.122;2023-09-12T01:47:57;0.22;;;0.22;;
14872;SDS011;7528;48.576;19.122;2023-09-12T01:53:01;0.20;;;0.20;;
14872;SDS011;7528;48.576;19.122;2023-09-12T01:58:06;0.30;;;0.30;;
14872;SDS011;7528;48.576;19.122;2023-09-12T02:03:08;0.30;;;0.30;;
14872;SDS011;7528;48.576;19.122;2023-09-12T02:08:11;0.20;;;0.20;;
14872;SDS011;7528;48.576;19.122;2023-09-12T02:13:14;0.30;;;0.30;;
14872;SDS011;7528;48.576;19.122;2023-09-12T02:18:17;0.30;;;0.30;;
14872;SDS011;7528;48.576;19.122;2023-09-12T02:23:19;0.20;;;0.20;;
14872;SDS011;7528;48.576;19.122;2023-09-12T02:28:23;0.30;;;0.30;;
14872;SDS011;7528;48.576;19.122;2023-09-12T02:33:25;0.30;;;0.30;;
14872;SDS011;7528;48.576;19.122;2023-09-12T02:38:28;0.22;;;0.22;;
14872;SDS011;7528;48.576;19.122;2023-09-12T02:43:32;0.20;;;0.20;;
14872;SDS011;7528;48.576;19.122;2023-09-12T02:48:34;0.20;;;0.20;;
14872;SDS011;7528;48.576;19.122;2023-09-12T02:53:37;0.30;;;0.30;;
14872;SDS011;7528;48.576;19.122;2023-09-12T02:58:40;0.20;;;0.20;;
14872;SDS011;7528;48.576;19.122;2023-09-12T03:03:43;0.30;;;0.30;;
14872;SDS011;7528;48.576;19.122;2023-09-12T03:08:48;0.20;;;0.20;;
14872;SDS011;7528;48.576;19.122;2023-09-12T03:13:53;0.20;;;0.20;;
14872;SDS011;7528;48.576;19.122;2023-09-12T03:18:55;0.20;;;0.20;;
14872;SDS011;7528;48.576;19.122;2023-09-12T03:23:58;0.30;;;0.30;;
14872;SDS011;7528;48.576;19.122;2023-09-12T03:29:01;0.20;;;0.20;;
14872;SDS011;7528;48.576;19.122;2023-09-12T03:34:04;0.30;;;0.30;;
14872;SDS011;7528;48.576;19.122;2023-09-12T03:39:07;0.30;;;0.30;;
14872;SDS011;7528;48.576;19.122;2023-09-12T03:44:10;0.20;;;0.20;;
14872;SDS011;7528;48.576;19.122;2023-09-12T03:49:13;0.20;;;0.20;;
14872;SDS011;7528;48.576;19.122;2023-09-12T03:54:16;0.30;;;0.30;;
14872;SDS011;7528;48.576;19.122;2023-09-12T03:59:19;0.20;;;0.20;;
14872;SDS011;7528;48.576;19.122;2023-09-12T04:04:22;0.20;;;0.20;;
14872;SDS011;7528;48.576;19.122;2023-09-12T04:09:24;0.30;;;0.30;;
14872;SDS011;7528;48.576;19.122;2023-09-12T04:14:29;0.30;;;0.30;;
14872;SDS011;7528;48.576;19.122;2023-09-12T04:19:31;0.20;;;0.20;;
14872;SDS011;7528;48.576;19.122;2023-09-12T04:24:34;0.20;;;0.20;;
14872;SDS011;7528;48.576;19.122;2023-09-12T04:29:38;0.20;;;0.20;;
14872;SDS011;7528;48.576;19.122;2023-09-12T04:34:42;0.30;;;0.30;;
14872;SDS011;7528;48.576;19.122;2023-09-12T04:39:44;0.30;;;0.30;;
14872;SDS011;7528;48.576;19.122;2023-09-12T04:44:48;0.20;;;0.20;;
14872;SDS011;7528;48.576;19.122;2023-09-12T04:49:51;0.30;;;0.30;;
14872;SDS011;7528;48.576;19.122;2023-09-12T04:54:54;0.30;;;0.30;;
14872;SDS011;7528;48.576;19.122;2023-09-12T04:59:58;0.30;;;0.30;;
14872;SDS011;7528;48.576;19.122;2023-09-12T05:05:00;0.20;;;0.20;;
14872;SDS011;7528;48.576;19.122;2023-09-12T05:10:03;0.25;;;0.25;;
14872;SDS011;7528;48.576;19.122;2023-09-12T05:15:08;0.30;;;0.30;;
14872;SDS011;7528;48.576;19.122;2023-09-12T05:20:11;0.20;;;0.20;;
14872;SDS011;7528;48.576;19.122;2023-09-12T05:25:13;0.30;;;0.30;;
14872;SDS011;7528;48.576;19.122;2023-09-12T05:30:17;0.20;;;0.20;;
14872;SDS011;7528;48.576;19.122;2023-09-12T05:35:20;0.30;;;0.30;;
14872;SDS011;7528;48.576;19.122;2023-09-12T05:40:23;0.25;;;0.25;;
14872;SDS011;7528;48.576;19.122;2023-09-12T05:45:27;0.30;;;0.30;;
14872;SDS011;7528;48.576;19.122;2023-09-12T05:50:31;0.30;;;0.30;;
14872;SDS011;7528;48.576;19.122;2023-09-12T05:55:34;0.30;;;0.30;;
14872;SDS011;7528;48.576;19.122;2023-09-12T06:00:38;0.30;;;0.30;;
14872;SDS011;7528;48.576;19.122;2023-09-12T06:05:40;0.30;;;0.30;;
14872;SDS011;7528;48.576;19.122;2023-09-12T06:10:43;0.30;;;0.30;;
14872;SDS011;7528;48.576;19.122;2023-09-12T06:15:47;0.38;;;0.38;;
14872;SDS011;7528;48.576;19.122;2023-09-12T06:20:49;0.30;;;0.30;;
14872;SDS011;7528;48.576;19.122;2023-09-12T06:25:52;0.30;;;0.30;;
14872;SDS011;7528;48.576;19.122;2023-09-12T06:30:56;0.30;;;0.30;;
14872;SDS011;7528;48.576;19.122;2023-09-12T06:35:58;0.30;;;0.30;;
14872;SDS011;7528;48.576;19.122;2023-09-12T06:41:01;0.30;;;0.30;;
14872;SDS011;7528;48.576;19.122;2023-09-12T06:46:05;0.22;;;0.22;;
14872;SDS011;7528;48.576;19.122;2023-09-12T06:51:08;0.40;;;0.40;;
14872;SDS011;7528;48.576;19.122;2023-09-12T06:56:11;0.30;;;0.30;;
14872;SDS011;7528;48.576;19.122;2023-09-12T07:01:14;0.30;;;0.30;;
14872;SDS011;7528;48.576;19.122;2023-09-12T07:06:17;0.40;;;0.40;;
14872;SDS011;7528;48.576;19.122;2023-09-12T07:11:19;0.40;;;0.40;;
14872;SDS011;7528;48.576;19.122;2023-09-12T07:16:23;0.40;;;0.40;;
14872;SDS011;7528;48.576;19.122;2023-09-12T07:21:25;0.40;;;0.40;;
14872;SDS011;7528;48.576;19.122;2023-09-12T07:26:28;0.40;;;0.40;;
14872;SDS011;7528;48.576;19.122;2023-09-12T07:31:32;0.40;;;0.40;;
14872;SDS011;7528;48.576;19.122;2023-09-12T07:36:34;0.40;;;0.40;;
14872;SDS011;7528;48.576;19.122;2023-09-12T07:41:37;0.40;;;0.40;;
14872;SDS011;7528;48.576;19.122;2023-09-12T07:46:41;0.40;;;0.40;;
14872;SDS011;7528;48.576;19.122;2023-09-12T07:51:43;0.40;;;0.40;;
14872;SDS011;7528;48.576;19.122;2023-09-12T07:56:45;0.40;;;0.40;;
14872;SDS011;7528;48.576;19.122;2023-09-12T08:01:49;0.40;;;0.40;;
14872;SDS011;7528;48.576;19.122;2023-09-12T08:06:51;0.40;;;0.40;;
14872;SDS011;7528;48.576;19.122;2023-09-12T08:11:54;0.40;;;0.40;;
14872;SDS011;7528;48.576;19.122;2023-09-12T08:16:58;0.40;;;0.40;;
14872;SDS011;7528;48.576;19.122;2023-09-12T08:22:00;0.40;;;0.40;;
14872;SDS011;7528;48.576;19.122;2023-09-12T08:27:03;0.40;;;0.40;;
14872;SDS011;7528;48.576;19.122;2023-09-12T08:32:07;0.40;;;0.40;;
14872;SDS011;7528;48.576;19.122;2023-09-12T08:37:10;0.40;;;0.40;;
14872;SDS011;7528;48.576;19.122;2023-09-12T08:42:13;0.40;;;0.40;;
14872;SDS011;7528;48.576;19.122;2023-09-12T08:47:17;0.40;;;0.40;;
14872;SDS011;7528;48.576;19.122;2023-09-12T08:52:24;0.40;;;0.40;;
14872;SDS011;7528;48.576;19.122;2023-09-12T08:57:26;0.40;;;0.40;;
14872;SDS011;7528;48.576;19.122;2023-09-12T09:02:31;0.40;;;0.40;;
14872;SDS011;7528;48.576;19.122;2023-09-12T09:07:35;0.40;;;0.40;;
14872;SDS011;7528;48.576;19.122;2023-09-12T09:12:39;0.40;;;0.40;;
14872;SDS011;7528;48.576;19.122;2023-09-12T09:17:43;0.40;;;0.40;;
14872;SDS011;7528;48.576;19.122;2023-09-12T09:22:50;0.40;;;0.40;;
14872;SDS011;7528;48.576;19.122;2023-09-12T09:27:58;0.40;;;0.40;;
14872;SDS011;7528;48.576;19.122;2023-09-12T09:33:05;0.40;;;0.40;;
14872;SDS011;7528;48.576;19.122;2023-09-12T09:38:08;0.40;;;0.40;;
14872;SDS011;7528;48.576;19.122;2023-09-12T09:43:10;0.40;;;0.40;;
14872;SDS011;7528;48.576;19.122;2023-09-12T09:48:21;0.40;;;0.40;;
14872;SDS011;7528;48.576;19.122;2023-09-12T09:53:26;0.40;;;0.40;;
14872;SDS011;7528;48.576;19.122;2023-09-12T09:58:29;0.40;;;0.40;;
14872;SDS011;7528;48.576;19.122;2023-09-12T10:03:32;0.40;;;0.40;;
14872;SDS011;7528;48.576;19.122;2023-09-12T10:08:38;0.40;;;0.40;;
14872;SDS011;7528;48.576;19.122;2023-09-12T10:13:43;0.40;;;0.40;;
14872;SDS011;7528;48.576;19.122;2023-09-12T10:18:55;0.40;;;0.40;;
14872;SDS011;7528;48.576;19.122;2023-09-12T10:24:02;0.40;;;0.40;;
14872;SDS011;7528;48.576;19.122;2023-09-12T10:29:05;0.40;;;0.40;;
14872;SDS011;7528;48.576;19.122;2023-09-12T10:34:10;0.40;;;0.40;;
14872;SDS011;7528;48.576;19.122;2023-09-12T10:39:14;0.40;;;0.40;;
14872;SDS011;7528;48.576;19.122;2023-09-12T10:44:17;0.40;;;0.40;;
14872;SDS011;7528;48.576;19.122;2023-09-12T10:49:22;0.40;;;0.40;;
14872;SDS011;7528;48.576;19.122;2023-09-12T10:54:26;0.40;;;0.40;;
14872;SDS011;7528;48.576;19.122;2023-09-12T10:59:42;0.40;;;0.40;;
14872;SDS011;7528;48.576;19.122;2023-09-12T11:10:39;0.40;;;0.40;;
14872;SDS011;7528;48.576;19.122;2023-09-12T11:15:42;0.40;;;0.40;;
14872;SDS011;7528;48.576;19.122;2023-09-12T11:21:23;0.40;;;0.40;;
14872;SDS011;7528;48.576;19.122;2023-09-12T11:26:33;0.40;;;0.40;;
14872;SDS011;7528;48.576;19.122;2023-09-12T11:31:36;0.40;;;0.40;;
14872;SDS011;7528;48.576;19.122;2023-09-12T11:36:44;0.40;;;0.40;;
14872;SDS011;7528;48.576;19.122;2023-09-12T11:41:48;0.40;;;0.40;;
14872;SDS011;7528;48.576;19.122;2023-09-12T11:46:50;0.40;;;0.40;;
14872;SDS011;7528;48.576;19.122;2023-09-12T11:51:56;0.40;;;0.40;;
14872;SDS011;7528;48.576;19.122;2023-09-12T11:56:58;0.40;;;0.40;;
14872;SDS011;7528;48.576;19.122;2023-09-12T12:02:05;0.40;;;0.40;;
14872;SDS011;7528;48.576;19.122;2023-09-12T12:07:10;0.40;;;0.40;;
14872;SDS011;7528;48.576;19.122;2023-09-12T12:12:13;0.40;;;0.40;;
14872;SDS011;7528;48.576;19.122;2023-09-12T12:17:16;0.40;;;0.40;;
14872;SDS011;7528;48.576;19.122;2023-09-12T12:22:20;0.40;;;0.40;;
14872;SDS011;7528;48.576;19.122;2023-09-12T12:27:22;0.40;;;0.40;;
14872;SDS011;7528;48.576;19.122;2023-09-12T12:32:25;0.40;;;0.40;;
14872;SDS011;7528;48.576;19.122;2023-09-12T12:37:29;0.40;;;0.40;;
14872;SDS011;7528;48.576;19.122;2023-09-12T12:42:35;0.40;;;0.40;;
14872;SDS011;7528;48.576;19.122;2023-09-12T12:47:39;0.40;;;0.40;;
14872;SDS011;7528;48.576;19.122;2023-09-12T12:52:45;0.40;;;0.40;;
14872;SDS011;7528;48.576;19.122;2023-09-12T12:57:49;0.40;;;0.40;;
14872;SDS011;7528;48.576;19.122;2023-09-12T13:02:51;0.40;;;0.40;;
14872;SDS011;7528;48.576;19.122;2023-09-12T13:07:55;0.40;;;0.40;;
14872;SDS011;7528;48.576;19.122;2023-09-12T13:12:57;0.40;;;0.40;;
14872;SDS011;7528;48.576;19.122;2023-09-12T13:18:00;0.40;;;0.40;;
14872;SDS011;7528;48.576;19.122;2023-09-12T13:23:05;0.40;;;0.40;;
14872;SDS011;7528;48.576;19.122;2023-09-12T13:28:08;0.35;;;0.35;;
14872;SDS011;7528;48.576;19.122;2023-09-12T13:33:10;0.40;;;0.40;;
14872;SDS011;7528;48.576;19.122;2023-09-12T13:38:16;0.40;;;0.40;;
14872;SDS011;7528;48.576;19.122;2023-09-12T13:43:19;0.40;;;0.40;;
14872;SDS011;7528;48.576;19.122;2023-09-12T13:48:23;0.30;;;0.30;;
14872;SDS011;7528;48.576;19.122;2023-09-12T13:53:27;0.30;;;0.30;;
14872;SDS011;7528;48.576;19.122;2023-09-12T13:58:30;0.30;;;0.30;;
14872;SDS011;7528;48.576;19.122;2023-09-12T14:03:33;0.30;;;0.30;;
14872;SDS011;7528;48.576;19.122;2023-09-12T14:08:37;0.30;;;0.30;;
14872;SDS011;7528;48.576;19.122;2023-09-12T14:13:39;0.30;;;0.30;;
14872;SDS011;7528;48.576;19.122;2023-09-12T14:18:44;0.30;;;0.30;;
14872;SDS011;7528;48.576;19.122;2023-09-12T14:23:48;0.30;;;0.30;;
14872;SDS011;7528;48.576;19.122;2023-09-12T14:28:51;0.40;;;0.40;;
14872;SDS011;7528;48.576;19.122;2023-09-12T14:33:54;0.30;;;0.30;;
14872;SDS011;7528;48.576;19.122;2023-09-12T14:38:58;0.30;;;0.30;;
14872;SDS011;7528;48.576;19.122;2023-09-12T14:44:01;0.40;;;0.40;;
14872;SDS011;7528;48.576;19.122;2023-09-12T14:49:03;0.35;;;0.35;;
14872;SDS011;7528;48.576;19.122;2023-09-12T14:54:07;0.40;;;0.40;;
14872;SDS011;7528;48.576;19.122;2023-09-12T14:59:10;0.30;;;0.30;;
14872;SDS011;7528;48.576;19.122;2023-09-12T15:04:13;0.30;;;0.30;;
14872;SDS011;7528;48.576;19.122;2023-09-12T15:09:17;0.30;;;0.30;;
14872;SDS011;7528;48.576;19.122;2023-09-12T15:14:19;0.40;;;0.40;;
14872;SDS011;7528;48.576;19.122;2023-09-12T15:29:41;0.30;;;0.30;;
14872;SDS011;7528;48.576;19.122;2023-09-12T15:40:16;0.30;;;0.30;;
14872;SDS011;7528;48.576;19.122;2023-09-12T15:45:18;0.30;;;0.30;;
14872;SDS011;7528;48.576;19.122;2023-09-12T15:50:21;0.30;;;0.30;;
14872;SDS011;7528;48.576;19.122;2023-09-12T15:55:28;0.30;;;0.30;;
14872;SDS011;7528;48.576;19.122;2023-09-12T16:00:31;0.30;;;0.30;;
14872;SDS011;7528;48.576;19.122;2023-09-12T16:05:33;0.30;;;0.30;;
14872;SDS011;7528;48.576;19.122;2023-09-12T16:10:37;0.28;;;0.28;;
14872;SDS011;7528;48.576;19.122;2023-09-12T16:15:39;0.20;;;0.20;;
14872;SDS011;7528;48.576;19.122;2023-09-12T16:20:42;0.20;;;0.20;;
14872;SDS011;7528;48.576;19.122;2023-09-12T16:25:46;0.20;;;0.20;;
14872;SDS011;7528;48.576;19.122;2023-09-12T16:30:51;0.22;;;0.22;;
14872;SDS011;7528;48.576;19.122;2023-09-12T16:35:54;0.20;;;0.20;;
14872;SDS011;7528;48.576;19.122;2023-09-12T16:40:57;0.20;;;0.20;;
14872;SDS011;7528;48.576;19.122;2023-09-12T16:46:00;0.20;;;0.20;;
14872;SDS011;7528;48.576;19.122;2023-09-12T16:51:03;0.30;;;0.30;;
14872;SDS011;7528;48.576;19.122;2023-09-12T16:56:07;0.20;;;0.20;;
14872;SDS011;7528;48.576;19.122;2023-09-12T17:01:12;0.20;;;0.20;;
14872;SDS011;7528;48.576;19.122;2023-09-12T17:06:14;0.20;;;0.20;;
14872;SDS011;7528;48.576;19.122;2023-09-12T17:11:18;0.30;;;0.30;;
14872;SDS011;7528;48.576;19.122;2023-09-12T17:16:22;0.30;;;0.30;;
14872;SDS011;7528;48.576;19.122;2023-09-12T17:21:25;0.20;;;0.20;;
14872;SDS011;7528;48.576;19.122;2023-09-12T17:26:29;0.30;;;0.30;;
14872;SDS011;7528;48.576;19.122;2023-09-12T17:31:31;0.30;;;0.30;;
14872;SDS011;7528;48.576;19.122;2023-09-12T17:36:34;0.30;;;0.30;;
14872;SDS011;7528;48.576;19.122;2023-09-12T17:41:38;0.30;;;0.30;;
14872;SDS011;7528;48.576;19.122;2023-09-12T17:46:41;0.30;;;0.30;;
14872;SDS011;7528;48.576;19.122;2023-09-12T17:51:43;0.30;;;0.30;;
14872;SDS011;7528;48.576;19.122;2023-09-12T17:56:47;0.30;;;0.30;;
14872;SDS011;7528;48.576;19.122;2023-09-12T18:01:50;0.30;;;0.30;;
14872;SDS011;7528;48.576;19.122;2023-09-12T18:06:52;0.30;;;0.30;;
14872;SDS011;7528;48.576;19.122;2023-09-12T18:11:56;0.30;;;0.30;;
14872;SDS011;7528;48.576;19.122;2023-09-12T18:16:59;0.30;;;0.30;;
14872;SDS011;7528;48.576;19.122;2023-09-12T18:22:01;0.30;;;0.30;;
14872;SDS011;7528;48.576;19.122;2023-09-12T18:27:06;0.30;;;0.30;;
14872;SDS011;7528;48.576;19.122;2023-09-12T18:32:09;0.30;;;0.30;;
14872;SDS011;7528;48.576;19.122;2023-09-12T18:37:11;0.30;;;0.30;;
14872;SDS011;7528;48.576;19.122;2023-09-12T18:42:15;0.30;;;0.30;;
14872;SDS011;7528;48.576;19.122;2023-09-12T18:47:18;0.30;;;0.30;;
14872;SDS011;7528;48.576;19.122;2023-09-12T18:52:20;0.30;;;0.30;;
14872;SDS011;7528;48.576;19.122;2023-09-12T18:57:24;0.30;;;0.30;;
14872;SDS011;7528;48.576;19.122;2023-09-12T19:02:27;0.30;;;0.30;;
14872;SDS011;7528;48.576;19.122;2023-09-12T19:07:29;0.30;;;0.30;;
14872;SDS011;7528;48.576;19.122;2023-09-12T19:12:33;0.30;;;0.30;;
14872;SDS011;7528;48.576;19.122;2023-09-12T19:17:35;0.30;;;0.30;;
14872;SDS011;7528;48.576;19.122;2023-09-12T19:22:38;0.30;;;0.30;;
14872;SDS011;7528;48.576;19.122;2023-09-12T19:27:42;0.30;;;0.30;;
14872;SDS011;7528;48.576;19.122;2023-09-12T19:32:45;0.22;;;0.22;;
14872;SDS011;7528;48.576;19.122;2023-09-12T19:48:07;0.30;;;0.30;;
14872;SDS011;7528;48.576;19.122;2023-09-12T19:53:11;0.22;;;0.22;;
14872;SDS011;7528;48.576;19.122;2023-09-12T19:58:18;0.30;;;0.30;;
14872;SDS011;7528;48.576;19.122;2023-09-12T20:03:20;0.30;;;0.30;;
14872;SDS011;7528;48.576;19.122;2023-09-12T20:08:23;0.30;;;0.30;;
14872;SDS011;7528;48.576;19.122;2023-09-12T20:13:28;0.20;;;0.20;;
14872;SDS011;7528;48.576;19.122;2023-09-12T20:18:30;0.30;;;0.30;;
14872;SDS011;7528;48.576;19.122;2023-09-12T20:23:33;0.30;;;0.30;;
14872;SDS011;7528;48.576;19.122;2023-09-12T20:28:37;0.30;;;0.30;;
14872;SDS011;7528;48.576;19.122;2023-09-12T20:44:24;0.30;;;0.30;;
14872;SDS011;7528;48.576;19.122;2023-09-12T20:49:27;0.30;;;0.30;;
14872;SDS011;7528;48.576;19.122;2023-09-12T20:54:31;0.30;;;0.30;;
14872;SDS011;7528;48.576;19.122;2023-09-12T20:59:35;0.30;;;0.30;;
14872;SDS011;7528;48.576;19.122;2023-09-12T21:04:37;0.30;;;0.30;;
14872;SDS011;7528;48.576;19.122;2023-09-12T21:09:40;0.30;;;0.30;;
14872;SDS011;7528;48.576;19.122;2023-09-12T21:14:44;0.30;;;0.30;;
14872;SDS011;7528;48.576;19.122;2023-09-12T21:19:47;0.20;;;0.20;;
14872;SDS011;7528;48.576;19.122;2023-09-12T21:24:49;0.30;;;0.30;;
14872;SDS011;7528;48.576;19.122;2023-09-12T21:29:54;0.30;;;0.30;;
14872;SDS011;7528;48.576;19.122;2023-09-12T21:35:07;0.20;;;0.20;;
14872;SDS011;7528;48.576;19.122;2023-09-12T21:40:15;0.30;;;0.30;;
14872;SDS011;7528;48.576;19.122;2023-09-12T21:45:19;0.30;;;0.30;;
14872;SDS011;7528;48.576;19.122;2023-09-12T21:50:21;0.30;;;0.30;;
14872;SDS011;7528;48.576;19.122;2023-09-12T21:55:36;0.30;;;0.30;;
14872;SDS011;7528;48.576;19.122;2023-09-12T22:00:40;0.30;;;0.30;;
14872;SDS011;7528;48.576;19.122;2023-09-12T22:05:44;0.30;;;0.30;;
14872;SDS011;7528;48.576;19.122;2023-09-12T22:10:50;0.30;;;0.30;;
14872;SDS011;7528;48.576;19.122;2023-09-12T22:15:54;0.30;;;0.30;;
14872;SDS011;7528;48.576;19.122;2023-09-12T22:20:57;0.38;;;0.38;;
14872;SDS011;7528;48.576;19.122;2023-09-12T22:26:06;0.30;;;0.30;;
14872;SDS011;7528;48.576;19.122;2023-09-12T22:31:11;0.30;;;0.30;;
14872;SDS011;7528;48.576;19.122;2023-09-12T22:36:15;0.30;;;0.30;;
14872;SDS011;7528;48.576;19.122;2023-09-12T22:41:19;0.30;;;0.30;;
14872;SDS011;7528;48.576;19.122;2023-09-12T22:46:26;0.20;;;0.20;;
14872;SDS011;7528;48.576;19.122;2023-09-12T22:51:29;0.30;;;0.30;;
14872;SDS011;7528;48.576;19.122;2023-09-12T22:56:31;0.30;;;0.30;;
14872;SDS011;7528;48.576;19.122;2023-09-12T23:01:37;0.40;;;0.40;;
14872;SDS011;7528;48.576;19.122;2023-09-12T23:06:40;0.20;;;0.20;;
14872;SDS011;7528;48.576;19.122;2023-09-12T23:11:42;0.20;;;0.20;;
14872;SDS011;7528;48.576;19.122;2023-09-12T23:16:46;0.30;;;0.30;;
14872;SDS011;7528;48.576;19.122;2023-09-12T23:21:48;0.20;;;0.20;;
14872;SDS011;7528;48.576;19.122;2023-09-12T23:26:51;0.30;;;0.30;;
14872;SDS011;7528;48.576;19.122;2023-09-12T23:32:09;0.30;;;0.30;;
14872;SDS011;7528;48.576;19.122;2023-09-12T23:37:11;0.25;;;0.25;;
14872;SDS011;7528;48.576;19.122;2023-09-12T23:42:14;0.25;;;0.25;;
14872;SDS011;7528;48.576;19.122;2023-09-12T23:52:36;0.30;;;0.30;;
14872;SDS011;7528;48.576;19.122;2023-09-12T23:57:38;0.30;;;0.30;;
